NRCO2: Canadian River at Norman, OK

                                SHEF ID:       NRCO2     Canadian River at Norman, OK
STATION TYPE:

STAGE RIV-FLOW BAT-LOAD
ft cfs volt
Ccp-Rev Ccp-Rev Ccp-Rev
(America/Chicago)
01/29 00:00 86.92 512 11.61
01/29 01:00 86.90 501 11.61
01/29 02:00 86.92 512 11.53
01/29 03:00 86.94 523 11.53
01/29 04:00 86.96 534 11.53
01/29 05:00 86.96 534 11.46
01/29 06:00 86.94 523 11.46
01/29 07:00 86.94 523 11.46
01/29 08:00 86.90 501 11.46
01/29 09:00 86.92 512 11.46
01/29 10:00 86.90 501 11.46
01/29 11:00 86.90 501 11.46
01/29 12:00 86.87 485 11.46
01/29 13:00 86.85 474 11.53
01/29 14:00 86.85 474 12.09
01/29 15:00 86.84 469 12.09
01/29 16:00 86.83 463 12.01
01/29 17:00 86.82 458 11.86
01/29 18:00 86.82 458 11.77
01/29 19:00 86.81 453 11.77
01/29 20:00 86.83 463 11.70
01/29 21:00 86.83 463 11.61
01/29 22:00 86.84 469 11.70
01/29 23:00 86.86 479 11.61
Data processed at Tue 30Jan2024 05:19 GMT

Parsing this webpage?

Checkout our new Data API! CWMSDataAPI (CDA)

Timeseries IDs (TSIDs)

TSIDs used from left to right in the data table
NORM.Stage.Inst.1Hour.0.Ccp-Rev
NORM.Flow.Inst.1Hour.0.Ccp-Rev
NORM.Volt-Battery Load.Inst.1Hour.0.Ccp-Rev

                            

All information presented herein is the property of the government of the United States of America and may be revised or deleted at any time without prior notice. Dissemination of this information without the expressed written consent of the Public Affairs Office, Tulsa District U.S. Army Corps of Engineers is strictly prohibited. These data are gathered electronically and, as presented, have NOT undergone any form of quality control. These data are NOT guaranteed to be valid or correct.